PWSweather.com
Personal Weather Stations
Station Observations
FWDETS1
Old French Road, Honeoye Falls, NY 14472

Old French RoadHoneoye Falls, NY 14472

Lat: 42.98, Lon: -77.614

Elevation: 660

Station Type: 1 Wire MetarLogic

Latest ConditionsUpdated 4:48:42 PM EDT Monday, Sep 23, 2019
Currently Today's Max Today's Min Today's Average
Temperature 68.7°F20.4°C 75.7°F24.3°C 66.4°F19.1°C 72.0°F22.2°C
Dew Point 66.8°F19.3°C 68.9°F20.5°C 61.0°F16.1°C 64.3°F17.9°C
Winds - N N - - - - -
Wind Gusts -- -- - -
Humidity 93% 94% 65% 77%
Pressure 29.75 in1007.5 mb 29.89 in1012.2 mb 29.74 in1007.1 mb -
Precipitation - 0.37 in9.4 mm - -
Hour Temp Dew Point Humidity Winds Wind Gusts Pressure Precip Precip Rate Daily Precip Total
04:48 PM 68.7°F20.4°C 66.8°F19.3°C 93% - N N -- 29.75 in1007.5 mb 0.01 in0.3 mm 0.00 in0.0 mm 0.37 in9.4 mm
04:43 PM 68.6°F20.3°C 66.8°F19.3°C 94% - N N -- 29.75 in1007.5 mb 0.02 in0.5 mm 0.00 in0.0 mm 0.37 in9.4 mm
04:37 PM 68.2°F20.1°C 66.4°F19.1°C 94% - N N -- 29.75 in1007.5 mb 0.08 in2.0 mm 0.00 in0.0 mm 0.37 in9.4 mm
04:31 PM 68.1°F20.1°C 66.0°F18.9°C 93% - N N -- 29.75 in1007.5 mb 0.08 in2.0 mm 0.00 in0.0 mm 0.37 in9.4 mm
04:25 PM 68.0°F20.0°C 65.9°F18.8°C 93% - N N -- 29.75 in1007.5 mb 0.08 in2.0 mm 0.00 in0.0 mm 0.37 in9.4 mm
04:19 PM 68.0°F20.0°C 65.8°F18.8°C 93% - N N -- 29.74 in1007.1 mb 0.08 in2.0 mm 0.00 in0.0 mm 0.37 in9.4 mm
04:13 PM 67.9°F19.9°C 65.7°F18.7°C 93% - N N -- 29.75 in1007.5 mb 0.10 in2.5 mm 0.00 in0.0 mm 0.37 in9.4 mm
04:07 PM 67.9°F19.9°C 65.7°F18.7°C 92% - N N -- 29.75 in1007.5 mb 0.14 in3.6 mm 0.00 in0.0 mm 0.37 in9.4 mm
04:02 PM 68.2°F20.1°C 65.5°F18.6°C 91% - N N -- 29.75 in1007.5 mb 0.14 in3.6 mm 0.00 in0.0 mm 0.37 in9.4 mm
03:56 PM 68.6°F20.3°C 65.8°F18.8°C 91% - N N -- 29.76 in1007.8 mb 0.15 in3.8 mm 0.00 in0.0 mm 0.37 in9.4 mm
03:50 PM 69.3°F20.7°C 66.0°F18.9°C 89% - N N -- 29.76 in1007.8 mb 0.16 in4.1 mm 0.00 in0.0 mm 0.37 in9.4 mm
03:44 PM 70.1°F21.2°C 67.8°F19.9°C 92% - N N -- 29.76 in1007.8 mb 0.16 in4.1 mm 0.40 in10.2 mm 0.36 in9.1 mm
03:38 PM 70.3°F21.3°C 68.5°F20.3°C 94% - N N -- 29.75 in1007.5 mb 0.12 in3.0 mm 0.00 in0.0 mm 0.29 in7.4 mm
03:32 PM 70.1°F21.2°C 68.3°F20.2°C 94% - N N -- 29.75 in1007.5 mb 0.14 in3.6 mm 0.00 in0.0 mm 0.29 in7.4 mm
03:27 PM 70.1°F21.2°C 68.1°F20.1°C 93% - N N -- 29.75 in1007.5 mb 0.15 in3.8 mm 0.00 in0.0 mm 0.29 in7.4 mm
03:21 PM 70.3°F21.3°C 68.2°F20.1°C 93% - N N -- 29.75 in1007.5 mb 0.18 in4.6 mm 0.00 in0.0 mm 0.29 in7.4 mm
03:16 PM 70.3°F21.3°C 68.3°F20.2°C 93% - N N -- 29.75 in1007.5 mb 0.20 in5.1 mm 0.20 in5.1 mm 0.28 in7.1 mm
03:10 PM 70.5°F21.4°C 68.5°F20.3°C 93% - N N -- 29.74 in1007.1 mb 0.18 in4.6 mm 0.00 in0.0 mm 0.25 in6.4 mm
03:04 PM 70.4°F21.3°C 68.5°F20.3°C 93% - N N -- 29.74 in1007.1 mb 0.20 in5.1 mm 0.01 in0.3 mm 0.23 in5.8 mm
02:59 PM 70.5°F21.4°C 68.5°F20.3°C 93% - N N -- 29.74 in1007.1 mb 0.19 in4.8 mm 0.10 in2.5 mm 0.22 in5.6 mm
02:53 PM 70.6°F21.4°C 68.5°F20.3°C 93% - N N -- 29.74 in1007.1 mb 0.18 in4.6 mm 0.00 in0.0 mm 0.22 in5.6 mm
02:48 PM 70.6°F21.4°C 68.3°F20.2°C 93% - N N -- 29.74 in1007.1 mb 0.18 in4.6 mm 0.10 in2.5 mm 0.21 in5.3 mm
02:42 PM 70.6°F21.4°C 68.2°F20.1°C 92% - N N -- 29.75 in1007.5 mb 0.17 in4.3 mm 0.12 in3.0 mm 0.19 in4.8 mm
02:37 PM 70.6°F21.4°C 67.8°F19.9°C 91% - N N -- 29.75 in1007.5 mb 0.16 in4.1 mm 0.20 in5.1 mm 0.17 in4.3 mm
02:31 PM 70.6°F21.4°C 67.7°F19.8°C 90% - N N -- 29.75 in1007.5 mb 0.14 in3.6 mm 0.12 in3.0 mm 0.15 in3.8 mm
02:26 PM 70.7°F21.5°C 67.8°F19.9°C 90% - N N -- 29.75 in1007.5 mb 0.13 in3.3 mm 0.30 in7.6 mm 0.14 in3.6 mm
02:20 PM 70.9°F21.6°C 67.7°F19.8°C 90% - N N -- 29.75 in1007.5 mb 0.10 in2.5 mm 0.40 in10.2 mm 0.11 in2.8 mm
02:14 PM 71.0°F21.7°C 67.4°F19.7°C 88% - N N -- 29.75 in1007.5 mb 0.06 in1.5 mm 0.12 in3.0 mm 0.07 in1.8 mm
02:09 PM 71.2°F21.8°C 67.7°F19.8°C 88% - N N -- 29.75 in1007.5 mb 0.05 in1.3 mm 0.30 in7.6 mm 0.06 in1.5 mm
02:03 PM 71.4°F21.9°C 67.7°F19.8°C 88% - N N -- 29.75 in1007.5 mb 0.02 in0.5 mm 0.00 in0.0 mm 0.03 in0.8 mm
01:58 PM 71.7°F22.1°C 67.8°F19.9°C 87% - N N -- 29.76 in1007.8 mb 0.02 in0.5 mm 0.00 in0.0 mm 0.03 in0.8 mm
01:52 PM 72.1°F22.3°C 67.9°F19.9°C 87% - N N -- 29.76 in1007.8 mb 0.03 in0.8 mm 0.00 in0.0 mm 0.03 in0.8 mm
01:46 PM 72.6°F22.6°C 68.2°F20.1°C 86% - N N -- 29.76 in1007.8 mb 0.03 in0.8 mm 0.20 in5.1 mm 0.03 in0.8 mm
01:40 PM 73.0°F22.8°C 68.1°F20.1°C 84% - N N -- 29.76 in1007.8 mb 0.01 in0.3 mm 0.00 in0.0 mm 0.02 in0.5 mm
01:34 PM 73.4°F23.0°C 68.2°F20.1°C 84% - N N -- 29.76 in1007.8 mb 0.01 in0.3 mm 0.00 in0.0 mm 0.01 in0.3 mm
01:28 PM 73.8°F23.2°C 68.4°F20.2°C 83% - N N -- 29.76 in1007.8 mb 0.01 in0.3 mm 0.00 in0.0 mm 0.01 in0.3 mm
01:22 PM 74.0°F23.3°C 68.5°F20.3°C 83% - N N -- 29.76 in1007.8 mb 0.01 in0.3 mm 0.00 in0.0 mm 0.01 in0.3 mm
01:16 PM 74.3°F23.5°C 68.8°F20.4°C 83% - N N -- 29.76 in1007.8 mb 0.01 in0.3 mm 0.00 in0.0 mm 0.01 in0.3 mm
01:10 PM 74.5°F23.6°C 68.8°F20.4°C 82% - N N -- 29.76 in1007.8 mb 0.01 in0.3 mm 0.00 in0.0 mm 0.01 in0.3 mm
01:04 PM 74.8°F23.8°C 68.9°F20.5°C 82% - N N -- 29.77 in1008.1 mb 0.01 in0.3 mm 0.00 in0.0 mm 0.01 in0.3 mm
12:58 PM 75.3°F24.1°C 68.5°F20.3°C 79% - N N -- 29.77 in1008.1 mb 0.01 in0.3 mm 0.10 in2.5 mm 0.01 in0.3 mm
12:52 PM 75.2°F24.0°C 67.3°F19.6°C 76% - N N -- 29.78 in1008.5 mb 0.00 in0.0 mm 0.00 in0.0 mm 0.00 in0.0 mm
12:46 PM 74.8°F23.8°C 67.0°F19.4°C 77% - N N -- 29.78 in1008.5 mb 0.00 in0.0 mm 0.00 in0.0 mm 0.00 in0.0 mm
12:40 PM 74.2°F23.4°C 66.5°F19.2°C 77% - N N -- 29.78 in1008.5 mb 0.00 in0.0 mm 0.00 in0.0 mm 0.00 in0.0 mm
12:35 PM 73.8°F23.2°C 66.5°F19.2°C 78% - N N -- 29.78 in1008.5 mb 0.00 in0.0 mm 0.00 in0.0 mm 0.00 in0.0 mm
12:29 PM 73.8°F23.2°C 66.0°F18.9°C 76% - N N -- 29.78 in1008.5 mb 0.00 in0.0 mm 0.00 in0.0 mm 0.00 in0.0 mm
12:23 PM 74.0°F23.3°C 65.8°F18.8°C 75% - N N -- 29.78 in1008.5 mb 0.00 in0.0 mm 0.00 in0.0 mm 0.00 in0.0 mm
12:17 PM 74.3°F23.5°C 66.0°F18.9°C 75% - N N -- 29.79 in1008.8 mb 0.00 in0.0 mm 0.00 in0.0 mm 0.00 in0.0 mm
12:11 PM 74.3°F23.5°C 65.7°F18.7°C 74% - N N -- 29.79 in1008.8 mb 0.00 in0.0 mm 0.00 in0.0 mm 0.00 in0.0 mm
12:06 PM 74.2°F23.4°C 65.8°F18.8°C 75% - N N -- 29.79 in1008.8 mb 0.00 in0.0 mm 0.00 in0.0 mm 0.00 in0.0 mm
12:00 PM 74.3°F23.5°C 65.6°F18.7°C 74% - N N -- 29.79 in1008.8 mb 0.00 in0.0 mm 0.00 in0.0 mm 0.00 in0.0 mm
11:54 AM 74.4°F23.6°C 65.7°F18.7°C 74% - N N -- 29.79 in1008.8 mb 0.00 in0.0 mm 0.00 in0.0 mm 0.00 in0.0 mm
11:48 AM 74.7°F23.7°C 65.9°F18.8°C 74% - N N -- 29.79 in1008.8 mb 0.00 in0.0 mm 0.00 in0.0 mm 0.00 in0.0 mm
11:42 AM 75.0°F23.9°C 65.8°F18.8°C 73% - N N -- 29.79 in1008.8 mb 0.00 in0.0 mm 0.00 in0.0 mm 0.00 in0.0 mm
11:36 AM 75.3°F24.1°C 65.6°F18.7°C 72% - N N -- 29.79 in1008.8 mb 0.00 in0.0 mm 0.00 in0.0 mm 0.00 in0.0 mm
11:31 AM 75.4°F24.1°C 66.3°F19.1°C 73% - N N -- 29.79 in1008.8 mb 0.00 in0.0 mm 0.00 in0.0 mm 0.00 in0.0 mm
11:25 AM 75.4°F24.1°C 66.0°F18.9°C 72% - N N -- 29.79 in1008.8 mb 0.00 in0.0 mm 0.00 in0.0 mm 0.00 in0.0 mm
11:20 AM 75.4°F24.1°C 66.6°F19.2°C 74% - N N -- 29.79 in1008.8 mb 0.00 in0.0 mm 0.00 in0.0 mm 0.00 in0.0 mm
11:14 AM 75.3°F24.1°C 65.5°F18.6°C 71% - N N -- 29.79 in1008.8 mb 0.00 in0.0 mm 0.00 in0.0 mm 0.00 in0.0 mm
11:09 AM 75.4°F24.1°C 65.7°F18.7°C 71% - N N -- 29.79 in1008.8 mb 0.00 in0.0 mm 0.00 in0.0 mm 0.00 in0.0 mm
11:03 AM 75.3°F24.1°C 65.6°F18.7°C 71% - N N -- 29.79 in1008.8 mb 0.00 in0.0 mm 0.00 in0.0 mm 0.00 in0.0 mm
10:57 AM 75.3°F24.1°C 65.7°F18.7°C 72% - N N -- 29.80 in1009.1 mb 0.00 in0.0 mm 0.00 in0.0 mm 0.00 in0.0 mm
10:51 AM 75.6°F24.2°C 65.1°F18.4°C 70% - N N -- 29.80 in1009.1 mb 0.00 in0.0 mm 0.00 in0.0 mm 0.00 in0.0 mm
10:45 AM 75.7°F24.3°C 65.0°F18.3°C 69% - N N -- 29.79 in1008.8 mb 0.00 in0.0 mm 0.00 in0.0 mm 0.00 in0.0 mm
10:40 AM 75.5°F24.2°C 65.3°F18.5°C 70% - N N -- 29.79 in1008.8 mb 0.00 in0.0 mm 0.00 in0.0 mm 0.00 in0.0 mm
10:34 AM 75.3°F24.1°C 65.1°F18.4°C 70% - N N -- 29.79 in1008.8 mb 0.00 in0.0 mm 0.00 in0.0 mm 0.00 in0.0 mm
10:28 AM 75.2°F24.0°C 64.5°F18.1°C 69% - N N -- 29.79 in1008.8 mb 0.00 in0.0 mm 0.00 in0.0 mm 0.00 in0.0 mm
10:22 AM 75.0°F23.9°C 64.5°F18.1°C 70% - N N -- 29.79 in1008.8 mb 0.00 in0.0 mm 0.00 in0.0 mm 0.00 in0.0 mm
10:16 AM 74.8°F23.8°C 64.9°F18.3°C 71% - N N -- 29.79 in1008.8 mb 0.00 in0.0 mm 0.00 in0.0 mm 0.00 in0.0 mm
10:10 AM 74.4°F23.6°C 64.0°F17.8°C 70% - N N -- 29.79 in1008.8 mb 0.00 in0.0 mm 0.00 in0.0 mm 0.00 in0.0 mm
10:05 AM 74.1°F23.4°C 64.0°F17.8°C 70% - N N -- 29.80 in1009.1 mb 0.00 in0.0 mm 0.00 in0.0 mm 0.00 in0.0 mm
09:59 AM 73.7°F23.2°C 63.8°F17.7°C 71% - N N -- 29.80 in1009.1 mb 0.00 in0.0 mm 0.00 in0.0 mm 0.00 in0.0 mm
09:53 AM 73.6°F23.1°C 63.3°F17.4°C 70% - N N -- 29.79 in1008.8 mb 0.00 in0.0 mm 0.00 in0.0 mm 0.00 in0.0 mm
09:47 AM 73.5°F23.1°C 63.5°F17.5°C 71% - N N -- 29.79 in1008.8 mb 0.00 in0.0 mm 0.00 in0.0 mm 0.00 in0.0 mm
09:42 AM 73.3°F22.9°C 63.6°F17.6°C 71% - N N -- 29.79 in1008.8 mb 0.00 in0.0 mm 0.00 in0.0 mm 0.00 in0.0 mm
09:36 AM 73.2°F22.9°C 62.5°F16.9°C 69% - N N -- 29.79 in1008.8 mb 0.00 in0.0 mm 0.00 in0.0 mm 0.00 in0.0 mm
09:30 AM 73.1°F22.8°C 62.8°F17.1°C 70% - N N -- 29.80 in1009.1 mb 0.00 in0.0 mm 0.00 in0.0 mm 0.00 in0.0 mm
09:24 AM 73.1°F22.8°C 63.2°F17.3°C 71% - N N -- 29.79 in1008.8 mb 0.00 in0.0 mm 0.00 in0.0 mm 0.00 in0.0 mm
09:18 AM 73.0°F22.8°C 63.2°F17.3°C 71% - N N -- 29.79 in1008.8 mb 0.00 in0.0 mm 0.00 in0.0 mm 0.00 in0.0 mm
09:12 AM 72.7°F22.6°C 62.8°F17.1°C 71% - N N -- 29.79 in1008.8 mb 0.00 in0.0 mm 0.00 in0.0 mm 0.00 in0.0 mm
09:07 AM 72.4°F22.4°C 62.5°F16.9°C 71% - N N -- 29.79 in1008.8 mb 0.00 in0.0 mm 0.00 in0.0 mm 0.00 in0.0 mm
09:01 AM 72.6°F22.6°C 62.7°F17.1°C 71% - N N -- 29.79 in1008.8 mb 0.00 in0.0 mm 0.00 in0.0 mm 0.00 in0.0 mm
08:56 AM 72.5°F22.5°C 62.4°F16.9°C 70% - N N -- 29.79 in1008.8 mb 0.00 in0.0 mm 0.00 in0.0 mm 0.00 in0.0 mm
08:50 AM 72.2°F22.3°C 61.7°F16.5°C 69% - N N -- 29.79 in1008.8 mb 0.00 in0.0 mm 0.00 in0.0 mm 0.00 in0.0 mm
08:44 AM 72.2°F22.3°C 61.7°F16.5°C 69% - N N -- 29.78 in1008.5 mb 0.00 in0.0 mm 0.00 in0.0 mm 0.00 in0.0 mm
08:39 AM 72.0°F22.2°C 61.8°F16.6°C 70% - N N -- 29.79 in1008.8 mb 0.00 in0.0 mm 0.00 in0.0 mm 0.00 in0.0 mm
08:34 AM 71.9°F22.2°C 61.6°F16.4°C 70% - N N -- 29.79 in1008.8 mb 0.00 in0.0 mm 0.00 in0.0 mm 0.00 in0.0 mm
08:28 AM 71.7°F22.1°C 61.4°F16.3°C 70% - N N -- 29.79 in1008.8 mb 0.00 in0.0 mm 0.00 in0.0 mm 0.00 in0.0 mm
08:22 AM 71.7°F22.1°C 61.6°F16.4°C 70% - N N -- 29.79 in1008.8 mb 0.00 in0.0 mm 0.00 in0.0 mm 0.00 in0.0 mm
08:17 AM 71.7°F22.1°C 61.4°F16.3°C 70% - N N -- 29.79 in1008.8 mb 0.00 in0.0 mm 0.00 in0.0 mm 0.00 in0.0 mm
08:11 AM 71.6°F22.0°C 61.4°F16.3°C 70% - N N -- 29.79 in1008.8 mb 0.00 in0.0 mm 0.00 in0.0 mm 0.00 in0.0 mm
08:05 AM 71.5°F21.9°C 61.5°F16.4°C 70% - N N -- 29.79 in1008.8 mb 0.00 in0.0 mm 0.00 in0.0 mm 0.00 in0.0 mm
07:59 AM 71.5°F21.9°C 61.5°F16.4°C 70% - N N -- 29.79 in1008.8 mb 0.00 in0.0 mm 0.00 in0.0 mm 0.00 in0.0 mm
07:54 AM 71.3°F21.8°C 61.0°F16.1°C 70% - N N -- 29.79 in1008.8 mb 0.00 in0.0 mm 0.00 in0.0 mm 0.00 in0.0 mm
07:48 AM 71.2°F21.8°C 61.4°F16.3°C 71% - N N -- 29.79 in1008.8 mb 0.00 in0.0 mm 0.00 in0.0 mm 0.00 in0.0 mm
07:42 AM 71.3°F21.8°C 61.7°F16.5°C 71% - N N -- 29.80 in1009.1 mb 0.00 in0.0 mm 0.00 in0.0 mm 0.00 in0.0 mm
07:37 AM 71.4°F21.9°C 61.7°F16.5°C 71% - N N -- 29.79 in1008.8 mb 0.00 in0.0 mm 0.00 in0.0 mm 0.00 in0.0 mm
07:31 AM 71.6°F22.0°C 61.9°F16.6°C 71% - N N -- 29.79 in1008.8 mb 0.00 in0.0 mm 0.00 in0.0 mm 0.00 in0.0 mm
07:25 AM 71.7°F22.1°C 61.5°F16.4°C 70% - N N -- 29.79 in1008.8 mb 0.00 in0.0 mm 0.00 in0.0 mm 0.00 in0.0 mm
07:20 AM 71.7°F22.1°C 61.1°F16.2°C 69% - N N -- 29.79 in1008.8 mb 0.00 in0.0 mm 0.00 in0.0 mm 0.00 in0.0 mm
07:14 AM 71.6°F22.0°C 61.4°F16.3°C 70% - N N -- 29.79 in1008.8 mb 0.00 in0.0 mm 0.00 in0.0 mm 0.00 in0.0 mm
07:08 AM 71.6°F22.0°C 61.4°F16.3°C 70% - N N -- 29.80 in1009.1 mb 0.00 in0.0 mm 0.00 in0.0 mm 0.00 in0.0 mm
07:02 AM 71.8°F22.1°C 61.4°F16.3°C 69% - N N -- 29.79 in1008.8 mb 0.00 in0.0 mm 0.00 in0.0 mm 0.00 in0.0 mm
06:56 AM 71.9°F22.2°C 61.4°F16.3°C 69% - N N -- 29.79 in1008.8 mb 0.00 in0.0 mm 0.00 in0.0 mm 0.00 in0.0 mm
06:50 AM 72.0°F22.2°C 61.5°F16.4°C 69% - N N -- 29.79 in1008.8 mb 0.00 in0.0 mm 0.00 in0.0 mm 0.00 in0.0 mm
06:45 AM 71.9°F22.2°C 61.4°F16.3°C 69% - N N -- 29.79 in1008.8 mb 0.00 in0.0 mm 0.00 in0.0 mm 0.00 in0.0 mm
06:39 AM 71.9°F22.2°C 61.4°F16.3°C 69% - N N -- 29.79 in1008.8 mb 0.00 in0.0 mm 0.00 in0.0 mm 0.00 in0.0 mm
06:34 AM 72.0°F22.2°C 61.7°F16.5°C 70% - N N -- 29.79 in1008.8 mb 0.00 in0.0 mm 0.00 in0.0 mm 0.00 in0.0 mm
06:28 AM 72.1°F22.3°C 62.0°F16.7°C 70% - N N -- 29.79 in1008.8 mb 0.00 in0.0 mm 0.00 in0.0 mm 0.00 in0.0 mm
06:22 AM 72.4°F22.4°C 62.0°F16.7°C 69% - N N -- 29.79 in1008.8 mb 0.00 in0.0 mm 0.00 in0.0 mm 0.00 in0.0 mm
06:16 AM 72.6°F22.6°C 61.9°F16.6°C 69% - N N -- 29.79 in1008.8 mb 0.00 in0.0 mm 0.00 in0.0 mm 0.00 in0.0 mm
06:11 AM 72.8°F22.7°C 61.9°F16.6°C 68% - N N -- 29.79 in1008.8 mb 0.00 in0.0 mm 0.00 in0.0 mm 0.00 in0.0 mm
06:05 AM 73.0°F22.8°C 61.6°F16.4°C 67% - N N -- 29.80 in1009.1 mb 0.00 in0.0 mm 0.00 in0.0 mm 0.00 in0.0 mm
05:59 AM 72.9°F22.7°C 61.9°F16.6°C 68% - N N -- 29.80 in1009.1 mb 0.00 in0.0 mm 0.00 in0.0 mm 0.00 in0.0 mm
05:53 AM 72.8°F22.7°C 61.6°F16.4°C 67% - N N -- 29.79 in1008.8 mb 0.00 in0.0 mm 0.00 in0.0 mm 0.00 in0.0 mm
05:47 AM 72.8°F22.7°C 61.5°F16.4°C 67% - N N -- 29.80 in1009.1 mb 0.00 in0.0 mm 0.00 in0.0 mm 0.00 in0.0 mm
05:41 AM 72.9°F22.7°C 61.7°F16.5°C 67% - N N -- 29.79 in1008.8 mb 0.00 in0.0 mm 0.00 in0.0 mm 0.00 in0.0 mm
05:36 AM 73.1°F22.8°C 61.8°F16.6°C 67% - N N -- 29.80 in1009.1 mb 0.00 in0.0 mm 0.00 in0.0 mm 0.00 in0.0 mm
05:30 AM 73.5°F23.1°C 62.1°F16.7°C 67% - N N -- 29.80 in1009.1 mb 0.00 in0.0 mm 0.00 in0.0 mm 0.00 in0.0 mm
05:25 AM 73.6°F23.1°C 61.9°F16.6°C 66% - N N -- 29.80 in1009.1 mb 0.00 in0.0 mm 0.00 in0.0 mm 0.00 in0.0 mm
05:19 AM 73.8°F23.2°C 61.9°F16.6°C 66% - N N -- 29.80 in1009.1 mb 0.00 in0.0 mm 0.00 in0.0 mm 0.00 in0.0 mm
05:13 AM 73.8°F23.2°C 61.3°F16.3°C 65% - N N -- 29.80 in1009.1 mb 0.00 in0.0 mm 0.00 in0.0 mm 0.00 in0.0 mm
05:08 AM 73.8°F23.2°C 61.4°F16.3°C 65% - N N -- 29.80 in1009.1 mb 0.00 in0.0 mm 0.00 in0.0 mm 0.00 in0.0 mm
05:02 AM 73.7°F23.2°C 61.4°F16.3°C 65% - N N -- 29.81 in1009.5 mb 0.00 in0.0 mm 0.00 in0.0 mm 0.00 in0.0 mm
04:56 AM 73.6°F23.1°C 61.5°F16.4°C 65% - N N -- 29.80 in1009.1 mb 0.00 in0.0 mm 0.00 in0.0 mm 0.00 in0.0 mm
04:51 AM 73.6°F23.1°C 61.5°F16.4°C 66% - N N -- 29.80 in1009.1 mb 0.00 in0.0 mm 0.00 in0.0 mm 0.00 in0.0 mm
04:45 AM 73.6°F23.1°C 61.6°F16.4°C 66% - N N -- 29.81 in1009.5 mb 0.00 in0.0 mm 0.00 in0.0 mm 0.00 in0.0 mm
04:39 AM 73.7°F23.2°C 61.9°F16.6°C 66% - N N -- 29.81 in1009.5 mb 0.00 in0.0 mm 0.00 in0.0 mm 0.00 in0.0 mm
04:33 AM 73.6°F23.1°C 61.7°F16.5°C 66% - N N -- 29.81 in1009.5 mb 0.00 in0.0 mm 0.00 in0.0 mm 0.00 in0.0 mm
04:28 AM 73.4°F23.0°C 61.5°F16.4°C 66% - N N -- 29.81 in1009.5 mb 0.00 in0.0 mm 0.00 in0.0 mm 0.00 in0.0 mm
04:22 AM 73.6°F23.1°C 62.3°F16.8°C 67% - N N -- 29.81 in1009.5 mb 0.00 in0.0 mm 0.00 in0.0 mm 0.00 in0.0 mm
04:16 AM 73.5°F23.1°C 61.8°F16.6°C 66% - N N -- 29.81 in1009.5 mb 0.00 in0.0 mm 0.00 in0.0 mm 0.00 in0.0 mm
04:11 AM 73.3°F22.9°C 61.6°F16.4°C 66% - N N -- 29.81 in1009.5 mb 0.00 in0.0 mm 0.00 in0.0 mm 0.00 in0.0 mm
04:05 AM 73.3°F22.9°C 62.1°F16.7°C 68% - N N -- 29.81 in1009.5 mb 0.00 in0.0 mm 0.00 in0.0 mm 0.00 in0.0 mm
03:59 AM 73.3°F22.9°C 62.3°F16.8°C 68% - N N -- 29.82 in1009.8 mb 0.00 in0.0 mm 0.00 in0.0 mm 0.00 in0.0 mm
03:54 AM 73.1°F22.8°C 62.1°F16.7°C 68% - N N -- 29.82 in1009.8 mb 0.00 in0.0 mm 0.00 in0.0 mm 0.00 in0.0 mm
03:48 AM 72.9°F22.7°C 62.8°F17.1°C 70% - N N -- 29.82 in1009.8 mb 0.00 in0.0 mm 0.00 in0.0 mm 0.00 in0.0 mm
03:42 AM 72.8°F22.7°C 62.6°F17.0°C 70% - N N -- 29.83 in1010.2 mb 0.00 in0.0 mm 0.00 in0.0 mm 0.00 in0.0 mm
03:36 AM 72.6°F22.6°C 62.7°F17.1°C 71% - N N -- 29.83 in1010.2 mb 0.00 in0.0 mm 0.00 in0.0 mm 0.00 in0.0 mm
03:31 AM 72.6°F22.6°C 63.0°F17.2°C 71% - N N -- 29.83 in1010.2 mb 0.00 in0.0 mm 0.00 in0.0 mm 0.00 in0.0 mm
03:25 AM 72.5°F22.5°C 63.2°F17.3°C 72% - N N -- 29.83 in1010.2 mb 0.00 in0.0 mm 0.00 in0.0 mm 0.00 in0.0 mm
03:19 AM 72.4°F22.4°C 62.8°F17.1°C 72% - N N -- 29.83 in1010.2 mb 0.00 in0.0 mm 0.00 in0.0 mm 0.00 in0.0 mm
03:14 AM 72.3°F22.4°C 63.3°F17.4°C 73% - N N -- 29.83 in1010.2 mb 0.00 in0.0 mm 0.00 in0.0 mm 0.00 in0.0 mm
03:08 AM 72.2°F22.3°C 63.7°F17.6°C 74% - N N -- 29.83 in1010.2 mb 0.00 in0.0 mm 0.00 in0.0 mm 0.00 in0.0 mm
03:02 AM 72.0°F22.2°C 63.5°F17.5°C 74% - N N -- 29.83 in1010.2 mb 0.00 in0.0 mm 0.00 in0.0 mm 0.00 in0.0 mm
02:57 AM 72.1°F22.3°C 63.9°F17.7°C 75% - N N -- 29.83 in1010.2 mb 0.00 in0.0 mm 0.00 in0.0 mm 0.00 in0.0 mm
02:51 AM 72.2°F22.3°C 63.7°F17.6°C 74% - N N -- 29.84 in1010.5 mb 0.00 in0.0 mm 0.00 in0.0 mm 0.00 in0.0 mm
02:45 AM 72.3°F22.4°C 64.1°F17.8°C 75% - N N -- 29.84 in1010.5 mb 0.00 in0.0 mm 0.00 in0.0 mm 0.00 in0.0 mm
02:39 AM 72.4°F22.4°C 64.1°F17.8°C 75% - N N -- 29.84 in1010.5 mb 0.00 in0.0 mm 0.00 in0.0 mm 0.00 in0.0 mm
02:33 AM 72.5°F22.5°C 64.2°F17.9°C 75% - N N -- 29.84 in1010.5 mb 0.00 in0.0 mm 0.00 in0.0 mm 0.00 in0.0 mm
02:27 AM 72.6°F22.6°C 64.4°F18.0°C 75% - N N -- 29.84 in1010.5 mb 0.00 in0.0 mm 0.00 in0.0 mm 0.00 in0.0 mm
02:21 AM 72.5°F22.5°C 64.3°F17.9°C 75% - N N -- 29.84 in1010.5 mb 0.00 in0.0 mm 0.00 in0.0 mm 0.00 in0.0 mm
02:16 AM 72.4°F22.4°C 64.6°F18.1°C 76% - N N -- 29.85 in1010.8 mb 0.00 in0.0 mm 0.00 in0.0 mm 0.00 in0.0 mm
02:10 AM 72.6°F22.6°C 64.7°F18.2°C 76% - N N -- 29.85 in1010.8 mb 0.00 in0.0 mm 0.00 in0.0 mm 0.00 in0.0 mm
02:04 AM 72.5°F22.5°C 64.6°F18.1°C 76% - N N -- 29.85 in1010.8 mb 0.00 in0.0 mm 0.00 in0.0 mm 0.00 in0.0 mm
01:58 AM 72.3°F22.4°C 64.5°F18.1°C 76% - N N -- 29.85 in1010.8 mb 0.00 in0.0 mm 0.00 in0.0 mm 0.00 in0.0 mm
01:52 AM 72.1°F22.3°C 64.7°F18.2°C 77% - N N -- 29.85 in1010.8 mb 0.00 in0.0 mm 0.00 in0.0 mm 0.00 in0.0 mm
01:47 AM 71.6°F22.0°C 64.6°F18.1°C 78% - N N -- 29.86 in1011.2 mb 0.00 in0.0 mm 0.00 in0.0 mm 0.00 in0.0 mm
01:41 AM 70.8°F21.6°C 64.4°F18.0°C 80% - N N -- 29.86 in1011.2 mb 0.00 in0.0 mm 0.00 in0.0 mm 0.00 in0.0 mm
01:35 AM 70.2°F21.2°C 64.5°F18.1°C 82% - N N -- 29.86 in1011.2 mb 0.00 in0.0 mm 0.00 in0.0 mm 0.00 in0.0 mm
01:29 AM 69.4°F20.8°C 64.6°F18.1°C 85% - N N -- 29.87 in1011.5 mb 0.00 in0.0 mm 0.00 in0.0 mm 0.00 in0.0 mm
01:24 AM 68.9°F20.5°C 64.6°F18.1°C 86% - N N -- 29.87 in1011.5 mb 0.00 in0.0 mm 0.00 in0.0 mm 0.00 in0.0 mm
01:18 AM 68.4°F20.2°C 64.4°F18.0°C 87% - N N -- 29.87 in1011.5 mb 0.00 in0.0 mm 0.00 in0.0 mm 0.00 in0.0 mm
01:12 AM 68.0°F20.0°C 64.7°F18.2°C 89% - N N -- 29.87 in1011.5 mb 0.00 in0.0 mm 0.00 in0.0 mm 0.00 in0.0 mm
01:07 AM 67.8°F19.9°C 64.5°F18.1°C 89% - N N -- 29.87 in1011.5 mb 0.00 in0.0 mm 0.00 in0.0 mm 0.00 in0.0 mm
01:01 AM 67.3°F19.6°C 64.4°F18.0°C 90% - N N -- 29.87 in1011.5 mb 0.00 in0.0 mm 0.00 in0.0 mm 0.00 in0.0 mm
12:55 AM 67.1°F19.5°C 64.2°F17.9°C 90% - N N -- 29.87 in1011.5 mb 0.00 in0.0 mm 0.00 in0.0 mm 0.00 in0.0 mm
12:49 AM 66.7°F19.3°C 63.7°F17.6°C 90% - N N -- 29.87 in1011.5 mb 0.00 in0.0 mm 0.00 in0.0 mm 0.00 in0.0 mm
12:44 AM 66.7°F19.3°C 63.6°F17.6°C 90% - N N -- 29.87 in1011.5 mb 0.00 in0.0 mm 0.00 in0.0 mm 0.00 in0.0 mm
12:38 AM 66.5°F19.2°C 63.4°F17.4°C 90% - N N -- 29.88 in1011.9 mb 0.00 in0.0 mm 0.00 in0.0 mm 0.00 in0.0 mm
12:32 AM 66.5°F19.2°C 63.4°F17.4°C 90% - N N -- 29.88 in1011.9 mb 0.00 in0.0 mm 0.00 in0.0 mm 0.00 in0.0 mm
12:27 AM 66.4°F19.1°C 63.3°F17.4°C 90% - N N -- 29.88 in1011.9 mb 0.00 in0.0 mm 0.00 in0.0 mm 0.00 in0.0 mm
12:21 AM 66.4°F19.1°C 63.2°F17.3°C 89% - N N -- 29.88 in1011.9 mb 0.00 in0.0 mm 0.00 in0.0 mm 0.00 in0.0 mm
12:15 AM 66.4°F19.1°C 63.1°F17.3°C 89% - N N -- 29.88 in1011.9 mb 0.00 in0.0 mm 0.00 in0.0 mm 0.00 in0.0 mm
12:09 AM 66.5°F19.2°C 63.2°F17.3°C 89% - N N -- 29.89 in1012.2 mb 0.00 in0.0 mm 0.00 in0.0 mm 0.00 in0.0 mm
12:04 AM 66.6°F19.2°C 63.4°F17.4°C 89% - N N -- 29.89 in1012.2 mb 0.00 in0.0 mm 0.00 in0.0 mm 0.00 in0.0 mm